Time;durP1;ratioP1;P1;durP2;ratioP2;P2;SDS_P1;SDS_P2;PMS_P1;PMS_P2;Temp;Humidity;BMP_temperature;BMP_pressure;BME280_temperature;BME280_humidity;BME280_pressure;Samples;Min_cycle;Max_cycle;Signal;HPM_P1;HPM_P2
2022/01/17 00:00:24;;;;;;;36.15;15.90;;;-1.40;73.10;;;-0.96;95.55;97740.31;4979592;28;125965;-75
2022/01/17 00:02:54;;;;;;;36.53;17.42;;;-1.30;68.50;;;-0.89;95.69;97734.66;4980254;28;125689;-77
2022/01/17 00:05:22;;;;;;;40.78;17.02;;;-1.30;67.50;;;-0.87;95.19;97721.88;4981319;28;129181;-77
2022/01/17 00:07:51;;;;;;;38.83;17.70;;;-1.30;65.40;;;-0.78;94.88;97714.88;4980246;28;129862;-78
2022/01/17 00:10:20;;;;;;;34.40;16.25;;;-1.30;65.60;;;-0.80;95.11;97706.34;4979794;28;125472;-77
2022/01/17 00:12:51;;;;;;;36.58;17.05;;;-1.20;64.70;;;-0.88;94.96;97696.31;4998576;28;126366;-77
2022/01/17 00:15:27;;;;;;;36.42;17.88;;;-1.20;58.50;;;-0.95;94.92;97703.81;4979018;28;129680;-78
2022/01/17 00:18:26;;;;;;;38.43;16.87;;;-1.30;56.40;;;-1.01;95.09;97688.94;4974283;28;129409;-77
2022/01/17 00:20:48;;;;;;;34.72;16.05;;;-1.30;57.10;;;-0.86;94.32;97686.16;4982312;28;125817;-77
2022/01/17 00:23:18;;;;;;;32.67;15.52;;;-1.30;55.50;;;-1.06;95.27;97671.19;4979037;28;125360;-78
2022/01/17 00:25:46;;;;;;;38.22;16.88;;;-1.30;56.00;;;-1.00;94.97;97663.91;4976589;28;130180;-77
2022/01/17 00:28:15;;;;;;;39.88;19.05;;;-1.30;56.60;;;-0.87;95.50;97652.63;4979127;28;129563;-76
2022/01/17 00:30:45;;;;;;;39.22;17.88;;;-1.20;60.30;;;-0.74;94.97;97651.94;4970420;28;124663;-76
2022/01/17 00:33:13;;;;;;;38.72;18.05;;;-1.20;62.00;;;-0.79;95.27;97641.34;4976776;28;125288;-77
2022/01/17 00:35:42;;;;;;;33.85;16.85;;;-1.20;62.10;;;-0.89;95.99;97648.66;4979266;28;129641;-77
2022/01/17 00:38:12;;;;;;;37.05;17.20;;;-1.20;65.60;;;-0.65;95.47;97646.00;4979053;28;130468;-77
2022/01/17 00:40:42;;;;;;;38.88;18.83;;;-1.10;67.10;;;-0.61;94.73;97629.19;4997379;28;125882;-77
2022/01/17 00:43:11;;;;;;;38.85;18.05;;;-1.20;66.40;;;-0.59;94.87;97631.56;4980255;28;126397;-77
2022/01/17 00:45:43;;;;;;;39.08;18.17;;;-1.20;68.70;;;-0.78;95.62;97624.28;4978705;28;129438;-77
2022/01/17 00:48:13;;;;;;;40.88;18.20;;;-1.20;69.30;;;-0.66;95.81;97631.09;4981566;28;129658;-78
2022/01/17 00:50:44;;;;;;;37.67;18.58;;;-1.20;72.40;;;-0.58;95.81;97633.13;4978979;28;125554;-78
2022/01/17 00:53:12;;;;;;;41.03;17.73;;;-1.20;75.60;;;-0.57;95.56;97632.84;4977658;28;125219;-77
2022/01/17 00:55:40;;;;;;;43.42;19.50;;;-1.10;76.80;;;-0.49;95.90;97622.66;4980342;28;132512;-77
2022/01/17 00:58:09;;;;;;;43.35;18.90;;;-1.10;79.60;;;-0.52;96.54;97618.66;4979988;28;129338;-78
2022/01/17 01:00:40;;;;;;;41.35;18.45;;;-1.10;84.60;;;-0.59;96.85;97615.56;4979680;28;125144;-77
2022/01/17 01:03:09;;;;;;;41.50;18.00;;;-1.10;85.70;;;-0.70;97.42;97608.75;4977545;28;125823;-76
2022/01/17 01:05:40;;;;;;;38.47;18.67;;;-1.10;86.30;;;-0.73;97.91;97599.47;4978965;28;129130;-76
2022/01/17 01:08:08;;;;;;;36.70;17.33;;;-1.10;90.00;;;-0.69;98.37;97602.34;4979228;28;129747;-76
2022/01/17 01:10:37;;;;;;;40.78;18.73;;;-1.10;90.00;;;-0.67;98.22;97600.19;4977284;28;125471;-77
2022/01/17 01:13:06;;;;;;;37.17;18.40;;;-1.10;91.00;;;-0.56;98.17;97585.69;4977419;28;125702;-77
2022/01/17 01:15:46;;;;;;;38.03;17.30;;;-1.00;92.60;;;-0.55;98.18;97587.25;4994915;28;128327;-76
2022/01/17 01:18:19;;;;;;;36.00;16.77;;;-1.00;93.20;;;-0.61;98.74;97581.22;4990141;28;129522;-77
2022/01/17 01:29:12;;;;;;;35.42;17.67;;;-1.00;95.10;;;-0.52;99.02;97530.72;4979031;28;128514;-77
2022/01/17 01:31:45;;;;;;;36.60;17.70;;;-1.00;97.30;;;-0.57;98.92;97530.81;4976701;28;127022;-77
2022/01/17 01:34:15;;;;;;;32.20;16.73;;;-1.00;96.50;;;-0.58;99.41;97523.88;4977208;28;126112;-77
2022/01/17 01:36:47;;;;;;;37.33;17.88;;;-0.90;98.40;;;-0.40;98.95;97517.78;4976863;28;129528;-77
2022/01/17 01:39:22;;;;;;;37.85;18.27;;;-0.90;99.90;;;-0.50;99.37;97504.56;4978514;28;128751;-78
2022/01/17 01:41:52;;;;;;;39.10;18.70;;;-0.90;99.90;;;-0.52;99.42;97500.63;4973116;28;125600;-78
2022/01/17 01:44:25;;;;;;;35.17;16.83;;;-0.90;99.90;;;-0.56;99.55;97497.75;4978959;28;124196;-77
2022/01/17 01:46:56;;;;;;;42.20;20.00;;;-0.90;99.90;;;-0.55;99.70;97494.00;4991972;28;129733;-77
2022/01/17 01:49:26;;;;;;;36.58;17.67;;;-0.90;98.40;;;-0.57;99.62;97491.63;4973001;28;130245;-76
2022/01/17 01:51:56;;;;;;;36.97;18.10;;;-0.90;97.50;;;-0.42;99.36;97487.97;4911770;28;1842690;-78
2022/01/17 01:54:25;;;;;;;41.85;17.33;;;-0.80;98.70;;;-0.33;98.90;97479.31;4978054;28;126723;-76
2022/01/17 01:56:53;;;;;;;36.05;17.17;;;-0.80;98.20;;;-0.35;98.68;97465.47;4976780;28;130291;-77
2022/01/17 01:59:22;;;;;;;34.85;17.23;;;-0.80;95.20;;;-0.34;98.69;97461.72;4977751;28;129846;-77
2022/01/17 02:01:52;;;;;;;31.73;16.35;;;-0.70;95.50;;;-0.38;99.12;97440.97;4978233;28;125727;-77
2022/01/17 02:04:21;;;;;;;35.30;17.10;;;-0.70;93.40;;;-0.15;98.40;97435.84;4979738;28;124381;-77
2022/01/17 02:06:49;;;;;;;33.88;16.85;;;-0.70;93.60;;;-0.27;97.50;97446.94;4974902;28;129696;-76
2022/01/17 02:09:23;;;;;;;35.03;15.77;;;-0.70;89.30;;;-0.07;97.73;97439.72;4975606;28;129659;-77
2022/01/17 02:12:01;;;;;;;38.60;18.33;;;-0.70;92.20;;;-0.01;97.21;97420.66;4978570;28;125584;-76
2022/01/17 02:14:29;;;;;;;35.63;17.58;;;-0.60;91.50;;;0.09;96.97;97414.34;4978644;28;125507;-76
2022/01/17 02:17:04;;;;;;;34.25;16.58;;;-0.60;91.80;;;0.00;96.91;97413.47;4976450;28;129054;-76
2022/01/17 02:19:34;;;;;;;36.38;16.92;;;-0.60;90.20;;;0.06;96.75;97398.16;4979913;28;131743;-76
2022/01/17 02:22:04;;;;;;;34.63;17.05;;;-0.60;90.50;;;0.05;96.56;97385.88;4977912;28;126632;-77
2022/01/17 02:24:33;;;;;;;36.65;17.23;;;-0.50;90.70;;;0.19;96.81;97368.03;4977625;28;126194;-77
2022/01/17 02:27:01;;;;;;;40.15;17.80;;;-0.50;93.20;;;0.09;96.43;97346.88;4993227;28;129523;-77
2022/01/17 02:29:30;;;;;;;35.65;16.40;;;-0.50;90.20;;;0.22;96.52;97354.13;4978128;28;129449;-77
2022/01/17 02:32:06;;;;;;;40.25;19.00;;;-0.40;92.70;;;0.28;96.26;97350.25;4978210;28;125375;-77
2022/01/17 02:34:40;;;;;;;40.13;19.52;;;-0.40;92.80;;;0.43;95.60;97335.03;4992859;28;125245;-77
2022/01/17 02:37:10;;;;;;;40.13;19.13;;;-0.40;92.80;;;0.45;95.44;97328.31;4979583;28;129904;-77
2022/01/17 02:39:40;;;;;;;41.83;17.85;;;-0.40;92.60;;;0.60;95.51;97329.09;4977894;28;129507;-77
2022/01/17 02:42:11;;;;;;;45.53;20.20;;;-0.30;92.80;;;0.68;95.55;97313.13;4979487;28;125678;-76
2022/01/17 02:44:45;;;;;;;47.38;19.95;;;-0.30;93.10;;;0.59;95.34;97306.91;4995948;28;124987;-76
2022/01/17 02:47:17;;;;;;;45.65;20.15;;;-0.30;92.80;;;0.59;95.68;97301.59;4976925;28;130816;-76
2022/01/17 02:49:46;;;;;;;45.78;21.27;;;-0.30;93.90;;;0.37;96.89;97298.88;5009530;28;129472;-78
2022/01/17 02:52:20;;;;;;;45.88;21.05;;;-0.30;93.90;;;0.39;97.52;97286.00;4978303;28;125896;-77
2022/01/17 02:54:48;;;;;;;48.22;20.27;;;-0.30;95.60;;;0.38;98.22;97268.44;4972959;28;125739;-77
2022/01/17 02:57:17;;;;;;;43.80;20.75;;;-0.30;98.50;;;0.24;98.81;97258.56;4977332;28;131160;-78
2022/01/17 02:59:46;;;;;;;51.78;21.17;;;-0.30;99.90;;;0.19;100.00;97256.00;4979734;28;130206;-77
2022/01/17 03:02:15;;;;;;;52.15;21.58;;;-0.30;99.90;;;0.15;100.00;97249.69;4976936;28;124672;-77
2022/01/17 03:04:43;;;;;;;43.17;20.70;;;-0.30;99.90;;;0.29;100.00;97253.09;4977271;28;126056;-77
2022/01/17 03:07:12;;;;;;;51.45;23.73;;;-0.20;99.90;;;0.27;100.00;97233.16;4963382;28;129241;-78
2022/01/17 03:09:55;;;;;;;49.63;22.00;;;-0.30;99.90;;;0.13;100.00;97230.53;4973109;28;129101;-76
2022/01/17 03:12:25;;;;;;;49.33;21.90;;;-0.30;99.90;;;0.23;100.00;97235.63;4977613;28;126203;-77
2022/01/17 03:14:53;;;;;;;50.28;22.38;;;-0.20;99.90;;;0.20;100.00;97230.88;4980684;28;127532;-76
2022/01/17 03:17:21;;;;;;;52.85;22.10;;;-0.30;99.90;;;0.24;100.00;97229.22;4980020;28;128683;-76
2022/01/17 03:19:51;;;;;;;53.03;22.80;;;-0.20;99.90;;;0.33;100.00;97219.41;4995349;28;129976;-76
2022/01/17 03:22:20;;;;;;;50.85;21.02;;;-0.20;99.90;;;0.23;100.00;97224.94;4974917;28;126272;-77
2022/01/17 03:24:50;;;;;;;49.95;22.15;;;-0.20;99.90;;;0.37;100.00;97200.13;4979542;28;125631;-77
2022/01/17 03:27:19;;;;;;;53.28;22.63;;;-0.20;99.90;;;0.45;100.00;97194.06;4979778;28;129779;-76
2022/01/17 03:29:48;;;;;;;46.47;22.02;;;-0.20;99.90;;;0.46;100.00;97187.66;4974850;28;129635;-76
2022/01/17 03:32:16;;;;;;;42.83;21.27;;;-0.20;99.90;;;0.47;100.00;97181.25;4979487;28;124832;-76
2022/01/17 03:34:45;;;;;;;50.63;21.08;;;-0.20;99.90;;;0.49;100.00;97171.03;4980158;28;125491;-77
2022/01/17 03:37:14;;;;;;;49.03;22.60;;;-0.10;99.90;;;0.62;100.00;97158.72;4978289;28;129923;-76
2022/01/17 03:39:42;;;;;;;48.05;20.25;;;-0.10;99.90;;;0.63;100.00;97153.09;4979345;28;130066;-76
2022/01/17 03:42:12;;;;;;;44.88;20.50;;;-0.10;99.90;;;0.65;100.00;97158.91;4979918;28;125649;-77
2022/01/17 03:44:41;;;;;;;45.45;21.25;;;-0.10;99.90;;;0.51;100.00;97150.16;4980269;28;125136;-77
2022/01/17 03:47:10;;;;;;;44.00;21.63;;;-0.10;99.90;;;0.65;100.00;97140.22;4981527;28;129660;-76
2022/01/17 03:49:39;;;;;;;37.75;19.73;;;-0.10;99.90;;;0.50;100.00;97119.25;4979853;28;131521;-77
2022/01/17 03:52:08;;;;;;;42.63;19.48;;;-0.10;99.90;;;0.60;100.00;97115.53;4982114;28;125993;-77
2022/01/17 03:54:37;;;;;;;37.60;18.67;;;0.00;99.90;;;0.54;100.00;97114.88;4980477;28;125213;-76
2022/01/17 03:57:06;;;;;;;40.63;18.80;;;0.00;99.90;;;0.68;100.00;97098.78;4966992;28;129400;-76
2022/01/17 03:59:35;;;;;;;32.60;16.65;;;0.00;99.90;;;0.64;100.00;97085.25;4981269;28;128133;-77
2022/01/17 04:02:04;;;;;;;34.05;16.70;;;0.00;99.90;;;0.69;100.00;97081.69;4979506;28;126660;-76
2022/01/17 04:04:33;;;;;;;37.95;16.88;;;0.10;99.90;;;0.75;100.00;97074.31;4978687;28;125328;-77
2022/01/17 04:07:02;;;;;;;29.73;15.27;;;0.10;99.90;;;0.75;100.00;97074.31;4979593;28;130786;-76
2022/01/17 04:09:30;;;;;;;29.98;14.77;;;0.10;99.90;;;0.80;100.00;97071.53;4980355;28;129801;-75
2022/01/17 04:11:59;;;;;;;29.77;14.23;;;0.10;99.90;;;0.80;100.00;97068.84;4981143;28;125643;-76
2022/01/17 04:14:34;;;;;;;29.17;16.60;;;0.20;99.90;;;0.77;100.00;97077.47;4979230;28;125665;-76
2022/01/17 04:17:06;;;;;;;31.80;15.38;;;0.20;99.90;;;0.82;100.00;97061.31;4971001;28;129738;-77
2022/01/17 04:19:35;;;;;;;29.63;15.20;;;0.30;99.90;;;0.70;100.00;97062.69;4979268;28;130850;-77
2022/01/17 04:22:04;;;;;;;29.40;15.27;;;0.30;99.90;;;0.81;100.00;97057.06;4979525;28;125798;-77
2022/01/17 04:24:33;;;;;;;31.30;15.90;;;0.30;99.90;;;0.84;100.00;97045.78;4979930;28;124956;-77
2022/01/17 04:27:01;;;;;;;29.58;14.95;;;0.40;99.90;;;0.96;100.00;97040.63;4977064;28;128915;-75
2022/01/17 04:29:31;;;;;;;27.98;14.93;;;0.40;99.90;;;0.97;100.00;97028.88;4962255;28;128894;-76
2022/01/17 04:32:02;;;;;;;31.48;15.13;;;0.40;99.90;;;0.89;100.00;97038.41;4960617;28;125507;-76
2022/01/17 04:34:32;;;;;;;28.90;16.02;;;0.50;99.90;;;0.99;100.00;97026.66;4960479;28;126349;-75
2022/01/17 04:37:02;;;;;;;30.77;16.33;;;0.50;99.90;;;1.11;100.00;97011.94;4961836;28;129741;-77
2022/01/17 04:39:30;;;;;;;31.35;16.73;;;0.50;99.90;;;0.87;100.00;97002.44;4975639;28;129694;-77
2022/01/17 04:41:59;;;;;;;31.70;17.08;;;0.60;99.90;;;0.84;100.00;96992.38;4961872;28;124999;-77
2022/01/17 04:47:15;;;;;;;;;;;0.60;99.90;;;0.92;100.00;96996.97;4979167;28;129686;-76
2022/01/17 04:49:44;;;;;;;35.45;16.00;;;0.70;99.90;;;1.08;100.00;97000.78;4960182;28;130271;-76
2022/01/17 04:52:22;;;;;;;31.85;16.25;;;0.70;99.90;;;1.25;100.00;96981.31;4962591;28;127118;-77
2022/01/17 04:54:54;;;;;;;32.75;17.35;;;0.70;99.90;;;1.31;100.00;96979.31;4960444;28;126425;-76
2022/01/17 04:57:23;;;;;;;32.55;17.60;;;0.70;99.90;;;1.35;100.00;96969.53;4961231;28;129702;-76
2022/01/17 04:59:54;;;;;;;32.13;15.95;;;0.70;99.90;;;1.03;100.00;96934.16;4960077;28;129861;-76
2022/01/17 05:02:22;;;;;;;33.58;16.95;;;0.70;99.90;;;1.14;100.00;96948.00;4959688;28;125926;-76
2022/01/17 05:04:52;;;;;;;34.22;17.00;;;0.70;99.90;;;1.20;100.00;96943.28;4958249;28;125486;-76
2022/01/17 05:07:29;;;;;;;31.85;15.65;;;0.70;99.90;;;1.05;100.00;96923.94;4960021;28;129906;-75
2022/01/17 05:09:57;;;;;;;32.78;15.98;;;0.70;99.90;;;1.13;100.00;96908.25;4959541;28;129632;-75
2022/01/17 05:12:26;;;;;;;32.00;15.20;;;0.70;99.90;;;1.33;100.00;96896.94;4957903;28;126659;-75
2022/01/17 05:14:56;;;;;;;29.50;15.82;;;0.70;99.90;;;1.37;100.00;96892.53;4957871;28;125921;-75
2022/01/17 05:17:38;;;;;;;29.08;15.18;;;0.70;99.90;;;1.49;100.00;96869.72;4960172;28;129806;-75
2022/01/17 05:20:10;;;;;;;33.05;16.13;;;0.80;99.90;;;1.49;100.00;96867.06;4958016;28;129830;-75
2022/01/17 05:22:41;;;;;;;29.77;14.05;;;0.80;99.90;;;1.50;100.00;96852.59;4957830;28;125517;-75
2022/01/17 05:25:12;;;;;;;29.88;14.43;;;0.80;99.90;;;1.40;100.00;96835.78;4957422;28;126252;-75
2022/01/17 05:27:41;;;;;;;29.05;15.50;;;0.70;99.90;;;1.30;100.00;96833.44;4960890;28;129436;-75
2022/01/17 05:30:14;;;;;;;28.08;14.57;;;0.70;99.90;;;1.35;100.00;96824.47;4959730;28;129645;-75
2022/01/17 05:32:43;;;;;;;33.30;15.55;;;0.80;99.90;;;1.14;100.00;96816.28;4959461;28;125794;-75
2022/01/17 05:35:14;;;;;;;27.60;14.43;;;0.70;99.90;;;1.25;100.00;96793.53;4960244;28;125975;-74
2022/01/17 05:37:43;;;;;;;26.52;13.60;;;0.70;99.90;;;1.22;100.00;96789.59;4961471;28;129418;-75
2022/01/17 05:40:16;;;;;;;27.27;13.70;;;0.70;99.90;;;1.33;100.00;96784.69;4959354;28;130476;-73
2022/01/17 05:42:46;;;;;;;24.60;12.82;;;0.70;99.90;;;1.28;100.00;96766.16;4994255;28;127191;-75
2022/01/17 05:45:16;;;;;;;23.90;12.90;;;0.70;99.90;;;1.27;100.00;96748.56;4961353;28;125057;-78
2022/01/17 05:47:45;;;;;;;23.60;12.60;;;0.70;99.90;;;1.12;100.00;96746.38;4959636;28;130198;-79
2022/01/17 05:50:17;;;;;;;20.88;11.43;;;0.70;99.90;;;1.14;100.00;96757.53;4959274;28;130280;-79
2022/01/17 05:52:46;;;;;;;21.42;11.65;;;0.80;99.90;;;1.18;100.00;96756.56;4962633;28;126170;-79
2022/01/17 05:55:16;;;;;;;22.75;12.10;;;0.80;99.90;;;1.28;100.00;96747.47;4959580;28;125580;-79
2022/01/17 05:57:45;;;;;;;23.13;12.98;;;0.80;99.90;;;1.32;100.00;96751.06;4961137;28;129064;-80
2022/01/17 06:00:17;;;;;;;23.75;13.00;;;0.80;99.90;;;1.35;100.00;96737.06;4957838;28;129490;-79
2022/01/17 06:02:49;;;;;;;22.85;11.90;;;0.80;99.90;;;1.32;100.00;96744.94;4957280;28;126287;-80
2022/01/17 06:05:19;;;;;;;23.48;12.93;;;0.80;99.90;;;1.38;100.00;96735.63;4958392;28;126048;-79
2022/01/17 06:07:48;;;;;;;24.05;12.20;;;0.80;99.90;;;1.47;100.00;96719.59;4964716;28;130442;-79
2022/01/17 06:10:17;;;;;;;21.55;12.15;;;0.80;99.90;;;1.55;100.00;96722.22;4977535;28;129976;-79
2022/01/17 06:12:46;;;;;;;22.88;11.55;;;0.80;99.90;;;1.39;100.00;96692.56;4978795;28;126334;-80
2022/01/17 06:15:14;;;;;;;21.25;11.73;;;0.80;99.90;;;1.42;100.00;96681.25;4978276;28;125924;-80
2022/01/17 06:17:43;;;;;;;21.60;12.27;;;0.80;99.90;;;1.61;100.00;96666.69;4978753;28;129883;-80
2022/01/17 06:20:13;;;;;;;20.58;11.82;;;0.90;99.90;;;1.68;100.00;96658.16;4994032;28;130405;-79
2022/01/17 06:22:43;;;;;;;21.25;12.18;;;0.90;99.90;;;1.67;100.00;96638.69;4976611;28;126458;-80
2022/01/17 06:25:13;;;;;;;21.20;12.95;;;1.00;99.90;;;1.75;100.00;96640.50;4988221;28;125038;-80
2022/01/17 06:27:42;;;;;;;22.65;12.02;;;1.00;99.90;;;1.57;100.00;96639.03;4977164;28;130269;-80
2022/01/17 06:30:14;;;;;;;21.75;11.93;;;1.00;99.90;;;1.59;100.00;96621.56;4963962;28;129970;-80
2022/01/17 06:32:43;;;;;;;24.30;12.15;;;1.10;99.90;;;1.68;100.00;96613.47;4976251;28;126673;-80
2022/01/17 06:35:12;;;;;;;20.98;12.10;;;1.10;99.90;;;1.65;100.00;96575.94;4972278;28;126244;-80
2022/01/17 06:37:44;;;;;;;25.58;12.93;;;1.10;99.90;;;1.80;100.00;96583.38;4966570;28;129109;-80
2022/01/17 06:40:14;;;;;;;27.60;14.05;;;1.10;99.90;;;1.81;100.00;96574.25;4978725;28;129817;-81
2022/01/17 06:42:42;;;;;;;24.65;13.32;;;1.10;99.90;;;1.73;100.00;96561.72;4998805;28;125592;-80
2022/01/17 06:45:14;;;;;;;20.33;12.15;;;1.10;99.90;;;1.73;100.00;96575.88;5003594;28;125052;-81
2022/01/17 06:47:43;;;;;;;23.75;12.25;;;1.20;99.90;;;1.90;100.00;96603.59;5003958;28;128677;-83
2022/01/17 06:50:12;;;;;;;22.60;12.10;;;1.20;99.90;;;1.85;100.00;96617.94;5004384;28;128944;-82
2022/01/17 06:52:44;;;;;;;21.10;12.07;;;1.20;99.90;;;1.93;100.00;96640.41;5004915;28;125447;-81
2022/01/17 06:55:13;;;;;;;23.08;12.77;;;1.20;99.90;;;1.96;100.00;96655.78;5003590;28;124822;-82
2022/01/17 06:57:42;;;;;;;22.65;12.10;;;1.30;99.90;;;1.91;100.00;96622.00;5001072;28;130376;-84
2022/01/17 07:00:13;;;;;;;21.67;12.73;;;1.30;99.90;;;2.08;99.93;96618.44;5000912;28;129896;-81
2022/01/17 07:02:41;;;;;;;21.23;11.68;;;1.30;99.90;;;2.06;98.95;96585.88;5001735;28;125873;-82
2022/01/17 07:05:10;;;;;;;24.95;10.88;;;1.30;99.00;;;2.10;98.33;96560.03;4987234;28;124831;-83
2022/01/17 07:07:39;;;;;;;22.00;11.75;;;1.40;98.50;;;2.26;98.68;96540.69;5003528;28;129995;-81
2022/01/17 07:10:10;;;;;;;22.10;11.70;;;1.40;99.80;;;2.27;98.85;96535.00;5001528;28;129838;-82
2022/01/17 07:12:40;;;;;;;23.05;10.65;;;1.40;98.40;;;2.12;99.18;96533.72;5002380;28;125283;-82
2022/01/17 07:15:10;;;;;;;22.70;10.90;;;1.40;97.90;;;2.24;98.93;96521.50;5001776;28;125911;-82
2022/01/17 07:17:39;;;;;;;21.27;11.40;;;1.50;99.40;;;2.26;98.76;96519.28;4981978;28;129275;-81
2022/01/17 07:20:09;;;;;;;22.95;11.30;;;1.40;99.40;;;2.27;98.85;96486.84;4966722;28;129319;-83
2022/01/17 07:22:38;;;;;;;21.08;10.48;;;1.40;99.90;;;2.29;99.29;96471.25;4983619;28;125123;-84
2022/01/17 07:25:09;;;;;;;21.15;11.05;;;1.40;99.90;;;2.34;99.33;96451.53;4983212;28;125990;-81
2022/01/17 07:27:40;;;;;;;19.58;11.00;;;1.40;99.90;;;2.20;99.43;96451.03;4966973;28;128820;-81
2022/01/17 07:30:11;;;;;;;17.52;10.13;;;1.40;99.90;;;2.03;100.00;96431.38;4983152;28;128719;-83
2022/01/17 07:32:40;;;;;;;19.73;10.48;;;1.40;99.90;;;1.95;100.00;96429.56;4981365;28;126065;-82
2022/01/17 07:35:10;;;;;;;17.02;10.85;;;1.30;99.90;;;2.14;100.00;96427.16;4966541;28;124974;-81
2022/01/17 07:37:39;;;;;;;21.88;10.77;;;1.30;99.90;;;2.21;100.00;96399.09;4981298;28;130563;-80
2022/01/17 07:40:12;;;;;;;21.10;11.35;;;1.30;99.90;;;2.20;100.00;96373.44;4981292;28;129551;-82
2022/01/17 07:42:40;;;;;;;19.65;12.30;;;1.30;99.90;;;2.23;100.00;96364.72;4983143;28;125517;-82
2022/01/17 07:45:13;;;;;;;20.60;10.73;;;1.40;99.90;;;2.18;100.00;96370.31;4982394;28;125248;-81
2022/01/17 07:48:08;;;;;;;21.23;11.50;;;1.40;99.90;;;2.24;100.00;96355.59;4978510;28;129913;-80
2022/01/17 07:50:37;;;;;;;21.67;12.02;;;1.40;99.90;;;2.36;99.42;96366.31;4978535;28;129688;-80
2022/01/17 07:53:06;;;;;;;15.68;9.13;;;1.40;99.90;;;2.39;99.66;96388.97;4964178;28;124691;-81
2022/01/17 07:55:36;;;;;;;19.55;10.80;;;1.40;99.90;;;2.28;99.46;96383.28;4980531;28;125110;-81
2022/01/17 07:58:05;;;;;;;21.05;10.35;;;1.40;99.90;;;2.25;99.78;96374.00;4964152;28;128978;-83
2022/01/17 08:00:34;;;;;;;20.20;10.13;;;1.30;99.90;;;2.22;99.87;96339.09;4977688;28;129612;-81
2022/01/17 08:03:06;;;;;;;21.08;10.90;;;1.30;99.90;;;2.04;100.00;96335.84;4980177;28;125032;-81
2022/01/17 08:05:35;;;;;;;18.80;10.82;;;1.30;99.90;;;2.05;100.00;96311.44;4980216;28;125442;-82
2022/01/17 08:08:04;;;;;;;20.55;10.68;;;1.20;99.90;;;2.15;100.00;96300.31;4981370;28;129350;-82
2022/01/17 08:10:36;;;;;;;18.40;10.13;;;1.20;99.90;;;2.06;100.00;96296.19;4983540;28;130732;-83
2022/01/17 08:13:05;;;;;;;16.85;9.55;;;1.20;99.90;;;2.05;100.00;96267.88;4982043;28;125898;-81
2022/01/17 08:15:34;;;;;;;17.40;9.52;;;1.20;99.90;;;2.08;100.00;96273.31;4980042;28;125212;-80
2022/01/17 08:18:03;;;;;;;15.75;8.27;;;1.20;99.90;;;1.92;100.00;96281.25;4963965;28;129080;-86
2022/01/17 08:20:32;;;;;;;25.25;10.20;;;1.20;99.90;;;2.20;100.00;96269.88;4980369;28;128775;-84
2022/01/17 08:23:00;;;;;;;20.88;9.90;;;1.30;99.90;;;2.12;100.00;96258.19;4980382;28;125223;-81
2022/01/17 08:25:29;;;;;;;19.38;9.48;;;1.30;99.90;;;2.12;100.00;96263.53;4981981;28;124713;-82
2022/01/17 08:28:00;;;;;;;17.25;9.55;;;1.30;99.90;;;2.20;100.00;96253.03;4980122;28;129749;-80
2022/01/17 08:30:29;;;;;;;17.90;9.23;;;1.30;99.90;;;2.32;100.00;96236.97;4982382;28;129432;-84
2022/01/17 08:32:57;;;;;;;17.52;9.73;;;1.30;99.90;;;2.40;100.00;96246.78;4982084;28;125393;-81
2022/01/17 08:35:26;;;;;;;18.50;9.38;;;1.40;99.90;;;2.57;100.00;96235.03;4980153;28;125325;-79
2022/01/17 08:37:56;;;;;;;19.92;10.02;;;1.50;99.90;;;2.72;100.00;96230.84;4981390;28;128727;-81
2022/01/17 08:40:24;;;;;;;15.63;8.27;;;1.50;99.90;;;2.78;100.00;96234.84;4979168;28;129152;-81
2022/01/17 08:42:54;;;;;;;15.32;8.18;;;1.50;99.90;;;2.77;99.97;96229.84;4979748;28;125244;-80
2022/01/17 08:45:26;;;;;;;14.30;8.23;;;1.60;99.90;;;2.83;99.21;96236.50;4978277;28;125378;-80
2022/01/17 08:47:54;;;;;;;14.55;7.75;;;1.60;99.90;;;2.87;99.49;96227.44;4977874;28;129426;-79
2022/01/17 08:50:24;;;;;;;17.42;8.27;;;1.60;99.90;;;2.73;99.68;96216.34;4979367;28;129311;-79
2022/01/17 08:52:53;;;;;;;15.43;7.30;;;1.60;99.90;;;2.80;99.25;96213.84;4979297;28;125437;-79
2022/01/17 08:55:22;;;;;;;15.45;7.88;;;1.60;99.90;;;2.75;98.75;96202.63;4978635;28;124548;-78
2022/01/17 08:57:53;;;;;;;11.60;7.05;;;1.60;99.90;;;2.90;98.73;96209.94;4978629;28;130183;-80
2022/01/17 09:00:23;;;;;;;13.75;7.57;;;1.60;99.90;;;2.68;98.10;96177.22;4977810;28;129374;-82
2022/01/17 09:02:52;;;;;;;10.75;6.50;;;1.50;99.90;;;2.63;99.32;96192.72;4962916;28;125874;-82
2022/01/17 09:05:21;;;;;;;14.60;7.00;;;1.50;99.90;;;2.70;99.60;96177.63;4964074;28;125779;-81
2022/01/17 09:07:49;;;;;;;12.07;7.35;;;1.50;99.90;;;2.79;99.42;96188.22;4979450;28;129582;-82
2022/01/17 09:10:18;;;;;;;13.18;6.75;;;1.60;99.90;;;2.95;98.72;96168.72;4977826;28;129941;-82
2022/01/17 09:12:51;;;;;;;12.75;6.97;;;1.70;99.90;;;3.09;98.14;96163.72;4977050;28;125755;-81
2022/01/17 09:15:20;;;;;;;12.60;6.28;;;1.70;99.90;;;3.16;97.66;96155.84;4963967;28;125106;-81
2022/01/17 09:17:50;;;;;;;10.43;5.80;;;1.70;99.90;;;3.21;97.57;96160.97;4997249;28;129369;-83
2022/01/17 09:20:19;;;;;;;11.55;6.38;;;1.80;99.90;;;3.15;97.22;96161.59;4980751;28;129395;-82
2022/01/17 09:22:48;;;;;;;9.93;5.68;;;1.80;99.90;;;3.24;96.88;96138.84;4997008;28;125848;-81
2022/01/17 09:25:17;;;;;;;11.32;5.93;;;1.80;99.90;;;3.04;96.71;96139.88;4977690;28;125805;-82
2022/01/17 09:27:45;;;;;;;10.43;5.25;;;1.70;99.90;;;3.01;97.54;96135.97;4963256;28;129801;-82
2022/01/17 09:30:16;;;;;;;12.07;5.97;;;1.80;99.90;;;3.06;97.32;96134.94;4980183;28;129083;-82
2022/01/17 09:32:46;;;;;;;9.30;5.07;;;1.80;99.90;;;3.16;96.68;96125.63;4963995;28;124621;-81
2022/01/17 09:35:16;;;;;;;8.88;4.65;;;1.90;99.90;;;3.28;96.15;96122.09;4978453;28;125375;-81
2022/01/17 09:37:45;;;;;;;9.55;5.32;;;1.90;99.90;;;3.46;95.32;96115.25;4981156;28;128645;-82
2022/01/17 09:40:14;;;;;;;8.73;4.78;;;2.00;99.90;;;3.74;94.42;96112.44;4964315;28;129782;-82
2022/01/17 09:42:42;;;;;;;9.35;4.72;;;2.10;99.90;;;3.51;94.54;96125.69;4981002;28;125063;-81
2022/01/17 09:45:15;;;;;;;9.25;4.65;;;2.00;99.90;;;3.41;94.60;96123.53;4980910;28;124981;-81
2022/01/17 09:47:45;;;;;;;9.73;4.32;;;2.00;99.90;;;3.48;94.47;96131.75;4980165;28;128766;-82
2022/01/17 09:50:21;;;;;;;11.57;4.93;;;2.00;99.90;;;3.38;93.66;96127.69;4980021;28;129135;-84
2022/01/17 09:52:51;;;;;;;7.40;3.97;;;2.00;99.90;;;3.58;94.12;96122.41;4977654;28;126708;-83
2022/01/17 09:55:25;;;;;;;8.80;4.82;;;2.10;99.90;;;3.47;93.58;96135.56;4980690;28;125084;-82
2022/01/17 09:57:58;;;;;;;9.50;4.93;;;2.00;99.90;;;3.36;94.59;96129.16;4964432;28;129218;-82
2022/01/17 10:00:35;;;;;;;6.85;4.28;;;2.00;99.90;;;3.31;95.04;96121.38;4964352;28;128856;-83
2022/01/17 10:03:11;;;;;;;7.50;3.45;;;2.00;99.90;;;3.22;94.13;96111.59;4980472;28;125493;-83
2022/01/17 10:05:41;;;;;;;6.22;3.45;;;2.10;94.20;;;3.57;93.66;96107.44;4980850;28;125193;-83
2022/01/17 10:08:13;;;;;;;5.60;3.35;;;2.20;95.80;;;3.93;92.59;96109.00;4994999;28;130522;-82
2022/01/17 10:10:50;;;;;;;7.90;3.30;;;2.30;94.80;;;4.21;90.77;96097.31;4981640;28;129498;-84
2022/01/17 10:13:23;;;;;;;;;;;2.40;91.00;;;4.09;90.19;96084.03;4994480;28;125906;-81
2022/01/17 10:16:14;;;;;;;7.60;3.20;;;2.50;82.60;;;4.10;90.26;96090.97;4980168;28;124626;-82
2022/01/17 10:18:46;;;;;;;8.48;3.83;;;2.50;78.70;;;4.42;88.78;96090.81;4976671;28;127982;-81
2022/01/17 10:21:30;;;;;;;6.28;3.05;;;2.60;71.20;;;4.07;89.44;96075.56;4981289;28;130401;-81
2022/01/17 10:27:03;;;;;;;7.70;3.42;;;2.50;68.40;;;4.09;89.42;96062.56;4983787;28;124896;-86
2022/01/17 10:35:18;;;;;;;7.78;3.33;;;2.50;75.20;;;3.89;90.41;96073.28;4968267;28;124108;-86
2022/01/17 10:38:14;;;;;;;8.50;3.42;;;2.30;76.20;;;3.65;90.85;96081.56;4982018;28;125376;-88
2022/01/17 10:40:45;;;;;;;7.57;2.83;;;2.30;76.00;;;3.54;91.40;96082.09;4997716;28;130740;-85